Hastings, New York
Current Conditions -  °F | °C
As of 10:54 AM on Wednesday 22 Oct 2014 (Local Time) from KFZY Reporting Station
Overcast Overcast  
Wind Chill: 50°   Ceiling: 2600
Heat Index: 50°   Visibility: 10mi
Dew Point: 42°   Wind: 9mph
Humidity: 74%   Direction: 20°NNE
Pressure: 30.17"   Gusts: NA
Location:  43.37°N, 76.15°W
Report Text: KFZY 221454Z AUTO 02008KT 10SM FEW013 BKN026 OVC070 10/06 A3017 RMK AO2 SLP218 T01000056 50010
Loading
Personal Weather Stations






























Interactive Weather Map
Tropical Storm Tracking
New forecast layout! Learn more

10-Day Weather Forecast

Advertisements
Track Severe Weather on mobile